Terminal Aerodrome Forecast
Issued by NWS Tulsa, OK

Home | Current Version | Previous Version | Text Only | Print | Product List | Glossary On
Versions: 1 2 3 4 5 6 7 8 9 10 11 12 13 14 15
000
FTUS44 KTSA 240900 AAA
TAFFSM
TAF AMD
KFSM 240944Z 2410/2506 09008KT P6SM BKN050
      TEMPO 2410/2412 3SM -TSRA BKN025CB
     FM241600 20011G21KT P6SM VCTS BKN025CB
     FM242200 27012G20KT P6SM BKN050
     FM250100 28008KT P6SM SCT250=

USA.gov is the U.S. government's official web portal to all federal, state and local government web resources and services.